sensor_id;sensor_type;location;lat;lon;timestamp;temperature;humidity
47336;DHT22;33068;51.990;5.926;2023-04-08T00:02:09;5.30;99.90
47336;DHT22;33068;51.990;5.926;2023-04-08T00:04:36;5.60;99.90
47336;DHT22;33068;51.990;5.926;2023-04-08T00:07:03;5.40;99.90
47336;DHT22;33068;51.990;5.926;2023-04-08T00:09:31;5.10;99.90
47336;DHT22;33068;51.990;5.926;2023-04-08T00:11:58;5.00;99.90
47336;DHT22;33068;51.990;5.926;2023-04-08T00:14:25;4.90;99.90
47336;DHT22;33068;51.990;5.926;2023-04-08T00:16:53;4.90;99.90
47336;DHT22;33068;51.990;5.926;2023-04-08T00:19:21;4.90;99.90
47336;DHT22;33068;51.990;5.926;2023-04-08T00:21:48;4.90;99.90
47336;DHT22;33068;51.990;5.926;2023-04-08T00:24:16;4.90;99.90
47336;DHT22;33068;51.990;5.926;2023-04-08T00:26:43;4.80;99.90
47336;DHT22;33068;51.990;5.926;2023-04-08T00:29:10;4.80;99.90
47336;DHT22;33068;51.990;5.926;2023-04-08T00:31:37;4.80;99.90
47336;DHT22;33068;51.990;5.926;2023-04-08T00:34:04;4.80;99.90
47336;DHT22;33068;51.990;5.926;2023-04-08T00:36:33;4.80;99.90
47336;DHT22;33068;51.990;5.926;2023-04-08T00:39:00;4.80;99.90
47336;DHT22;33068;51.990;5.926;2023-04-08T00:41:29;4.70;99.90
47336;DHT22;33068;51.990;5.926;2023-04-08T00:43:56;4.60;99.90
47336;DHT22;33068;51.990;5.926;2023-04-08T00:46:23;4.50;99.90
47336;DHT22;33068;51.990;5.926;2023-04-08T00:48:51;4.50;99.90
47336;DHT22;33068;51.990;5.926;2023-04-08T00:51:18;4.60;99.90
47336;DHT22;33068;51.990;5.926;2023-04-08T00:53:47;4.40;99.90
47336;DHT22;33068;51.990;5.926;2023-04-08T00:56:14;4.60;99.90
47336;DHT22;33068;51.990;5.926;2023-04-08T00:58:41;4.40;99.90
47336;DHT22;33068;51.990;5.926;2023-04-08T01:01:13;4.40;99.90
47336;DHT22;33068;51.990;5.926;2023-04-08T01:03:51;4.30;99.90
47336;DHT22;33068;51.990;5.926;2023-04-08T01:06:29;4.20;99.90
47336;DHT22;33068;51.990;5.926;2023-04-08T01:09:00;4.20;99.90
47336;DHT22;33068;51.990;5.926;2023-04-08T01:11:32;4.20;99.90
47336;DHT22;33068;51.990;5.926;2023-04-08T01:14:01;4.40;99.90
47336;DHT22;33068;51.990;5.926;2023-04-08T01:16:31;4.20;99.90
47336;DHT22;33068;51.990;5.926;2023-04-08T01:18:59;4.10;99.90
47336;DHT22;33068;51.990;5.926;2023-04-08T01:21:27;4.10;99.90
47336;DHT22;33068;51.990;5.926;2023-04-08T01:24:00;4.10;99.90
47336;DHT22;33068;51.990;5.926;2023-04-08T01:26:35;4.10;99.90
47336;DHT22;33068;51.990;5.926;2023-04-08T01:29:03;4.10;99.90
47336;DHT22;33068;51.990;5.926;2023-04-08T01:31:31;4.10;99.90
47336;DHT22;33068;51.990;5.926;2023-04-08T01:33:59;4.10;99.90
47336;DHT22;33068;51.990;5.926;2023-04-08T01:36:27;4.10;99.90
47336;DHT22;33068;51.990;5.926;2023-04-08T01:38:58;4.10;99.90
47336;DHT22;33068;51.990;5.926;2023-04-08T01:41:27;4.20;99.90
47336;DHT22;33068;51.990;5.926;2023-04-08T01:43:58;4.10;99.90
47336;DHT22;33068;51.990;5.926;2023-04-08T01:46:26;4.10;99.90
47336;DHT22;33068;51.990;5.926;2023-04-08T01:48:55;4.10;99.90
47336;DHT22;33068;51.990;5.926;2023-04-08T01:51:25;4.20;99.90
47336;DHT22;33068;51.990;5.926;2023-04-08T01:53:53;4.10;99.90
47336;DHT22;33068;51.990;5.926;2023-04-08T01:56:21;4.40;99.90
47336;DHT22;33068;51.990;5.926;2023-04-08T01:58:51;4.10;99.90
47336;DHT22;33068;51.990;5.926;2023-04-08T02:01:22;4.00;99.90
47336;DHT22;33068;51.990;5.926;2023-04-08T02:03:52;4.00;99.90
47336;DHT22;33068;51.990;5.926;2023-04-08T02:06:23;4.00;99.90
47336;DHT22;33068;51.990;5.926;2023-04-08T02:08:51;4.00;99.90
47336;DHT22;33068;51.990;5.926;2023-04-08T02:11:20;4.10;99.90
47336;DHT22;33068;51.990;5.926;2023-04-08T02:13:47;4.00;99.90
47336;DHT22;33068;51.990;5.926;2023-04-08T02:16:20;3.90;99.90
47336;DHT22;33068;51.990;5.926;2023-04-08T02:18:54;3.90;99.90
47336;DHT22;33068;51.990;5.926;2023-04-08T02:21:26;4.00;99.90
47336;DHT22;33068;51.990;5.926;2023-04-08T02:23:56;4.00;99.90
47336;DHT22;33068;51.990;5.926;2023-04-08T02:26:25;4.00;99.90
47336;DHT22;33068;51.990;5.926;2023-04-08T02:28:56;4.00;99.90
47336;DHT22;33068;51.990;5.926;2023-04-08T02:31:23;4.00;99.90
47336;DHT22;33068;51.990;5.926;2023-04-08T02:33:54;4.00;99.90
47336;DHT22;33068;51.990;5.926;2023-04-08T02:36:22;4.00;99.90
47336;DHT22;33068;51.990;5.926;2023-04-08T02:38:49;4.00;99.90
47336;DHT22;33068;51.990;5.926;2023-04-08T02:41:16;4.00;99.90
47336;DHT22;33068;51.990;5.926;2023-04-08T02:43:43;3.90;99.90
47336;DHT22;33068;51.990;5.926;2023-04-08T02:46:17;3.90;99.90
47336;DHT22;33068;51.990;5.926;2023-04-08T02:48:45;4.10;99.90
47336;DHT22;33068;51.990;5.926;2023-04-08T02:51:14;3.80;99.90
47336;DHT22;33068;51.990;5.926;2023-04-08T02:53:41;3.80;99.90
47336;DHT22;33068;51.990;5.926;2023-04-08T02:56:09;3.80;99.90
47336;DHT22;33068;51.990;5.926;2023-04-08T02:58:36;3.70;99.90
47336;DHT22;33068;51.990;5.926;2023-04-08T03:01:03;3.70;99.90
47336;DHT22;33068;51.990;5.926;2023-04-08T03:03:34;3.80;99.90
47336;DHT22;33068;51.990;5.926;2023-04-08T03:06:02;3.60;99.90
47336;DHT22;33068;51.990;5.926;2023-04-08T03:08:30;3.60;99.90
47336;DHT22;33068;51.990;5.926;2023-04-08T03:10:58;3.60;99.90
47336;DHT22;33068;51.990;5.926;2023-04-08T03:13:25;3.50;99.90
47336;DHT22;33068;51.990;5.926;2023-04-08T03:15:54;3.50;99.90
47336;DHT22;33068;51.990;5.926;2023-04-08T03:18:21;3.40;99.90
47336;DHT22;33068;51.990;5.926;2023-04-08T03:20:48;3.40;99.90
47336;DHT22;33068;51.990;5.926;2023-04-08T03:23:15;3.40;99.90
47336;DHT22;33068;51.990;5.926;2023-04-08T03:25:47;3.50;99.90
47336;DHT22;33068;51.990;5.926;2023-04-08T03:28:14;3.70;99.90
47336;DHT22;33068;51.990;5.926;2023-04-08T03:30:41;3.30;99.90
47336;DHT22;33068;51.990;5.926;2023-04-08T03:33:08;3.20;99.90
47336;DHT22;33068;51.990;5.926;2023-04-08T03:35:35;3.20;99.90
47336;DHT22;33068;51.990;5.926;2023-04-08T03:38:02;3.20;99.90
47336;DHT22;33068;51.990;5.926;2023-04-08T03:40:31;3.20;99.90
47336;DHT22;33068;51.990;5.926;2023-04-08T03:43:00;3.20;99.90
47336;DHT22;33068;51.990;5.926;2023-04-08T03:45:27;3.10;99.90
47336;DHT22;33068;51.990;5.926;2023-04-08T03:47:54;3.00;99.90
47336;DHT22;33068;51.990;5.926;2023-04-08T03:50:21;3.00;99.90
47336;DHT22;33068;51.990;5.926;2023-04-08T03:52:48;3.00;99.90
47336;DHT22;33068;51.990;5.926;2023-04-08T03:55:16;3.00;99.90
47336;DHT22;33068;51.990;5.926;2023-04-08T03:57:43;3.00;99.90
47336;DHT22;33068;51.990;5.926;2023-04-08T04:00:13;2.90;99.90
47336;DHT22;33068;51.990;5.926;2023-04-08T04:02:40;3.00;99.90
47336;DHT22;33068;51.990;5.926;2023-04-08T04:05:07;2.90;99.90
47336;DHT22;33068;51.990;5.926;2023-04-08T04:07:37;3.00;99.90
47336;DHT22;33068;51.990;5.926;2023-04-08T04:10:05;2.90;99.90
47336;DHT22;33068;51.990;5.926;2023-04-08T04:12:32;2.90;99.90
47336;DHT22;33068;51.990;5.926;2023-04-08T04:14:59;2.90;99.90
47336;DHT22;33068;51.990;5.926;2023-04-08T04:17:28;2.80;99.90
47336;DHT22;33068;51.990;5.926;2023-04-08T04:19:57;2.70;99.90
47336;DHT22;33068;51.990;5.926;2023-04-08T04:22:24;2.80;99.90
47336;DHT22;33068;51.990;5.926;2023-04-08T04:24:52;2.80;99.90
47336;DHT22;33068;51.990;5.926;2023-04-08T04:27:19;2.80;99.90
47336;DHT22;33068;51.990;5.926;2023-04-08T04:29:46;2.80;99.90
47336;DHT22;33068;51.990;5.926;2023-04-08T04:32:13;2.80;99.90
47336;DHT22;33068;51.990;5.926;2023-04-08T04:34:42;2.80;99.90
47336;DHT22;33068;51.990;5.926;2023-04-08T04:37:09;2.80;99.90
47336;DHT22;33068;51.990;5.926;2023-04-08T04:39:36;2.70;99.90
47336;DHT22;33068;51.990;5.926;2023-04-08T04:42:03;2.70;99.90
47336;DHT22;33068;51.990;5.926;2023-04-08T04:44:31;2.70;99.90
47336;DHT22;33068;51.990;5.926;2023-04-08T04:46:58;2.70;99.90
47336;DHT22;33068;51.990;5.926;2023-04-08T04:49:26;3.10;99.90
47336;DHT22;33068;51.990;5.926;2023-04-08T04:51:55;2.70;99.90
47336;DHT22;33068;51.990;5.926;2023-04-08T04:54:22;2.70;99.90
47336;DHT22;33068;51.990;5.926;2023-04-08T04:56:49;2.60;99.90
47336;DHT22;33068;51.990;5.926;2023-04-08T04:59:16;2.60;99.90
47336;DHT22;33068;51.990;5.926;2023-04-08T05:01:43;2.60;99.90
47336;DHT22;33068;51.990;5.926;2023-04-08T05:04:10;2.60;99.90
47336;DHT22;33068;51.990;5.926;2023-04-08T05:06:37;2.60;99.90
47336;DHT22;33068;51.990;5.926;2023-04-08T05:09:05;2.50;99.90
47336;DHT22;33068;51.990;5.926;2023-04-08T05:11:35;2.50;99.90
47336;DHT22;33068;51.990;5.926;2023-04-08T05:14:02;2.50;99.90
47336;DHT22;33068;51.990;5.926;2023-04-08T05:16:29;2.50;99.90
47336;DHT22;33068;51.990;5.926;2023-04-08T05:18:56;2.50;99.90
47336;DHT22;33068;51.990;5.926;2023-04-08T05:21:23;2.50;99.90
47336;DHT22;33068;51.990;5.926;2023-04-08T05:23:50;2.50;99.90
47336;DHT22;33068;51.990;5.926;2023-04-08T05:26:19;2.80;99.90
47336;DHT22;33068;51.990;5.926;2023-04-08T05:28:50;2.50;99.90
47336;DHT22;33068;51.990;5.926;2023-04-08T05:31:18;2.80;99.90
47336;DHT22;33068;51.990;5.926;2023-04-08T05:33:46;2.90;99.90
47336;DHT22;33068;51.990;5.926;2023-04-08T05:36:13;2.50;99.90
47336;DHT22;33068;51.990;5.926;2023-04-08T05:38:48;2.50;99.90
47336;DHT22;33068;51.990;5.926;2023-04-08T05:41:15;2.50;99.90
47336;DHT22;33068;51.990;5.926;2023-04-08T05:43:44;2.90;99.90
47336;DHT22;33068;51.990;5.926;2023-04-08T05:46:11;2.60;99.90
47336;DHT22;33068;51.990;5.926;2023-04-08T05:48:38;2.60;99.90
47336;DHT22;33068;51.990;5.926;2023-04-08T05:51:12;2.70;99.90
47336;DHT22;33068;51.990;5.926;2023-04-08T05:53:39;2.70;99.90
47336;DHT22;33068;51.990;5.926;2023-04-08T05:56:06;2.80;99.90
47336;DHT22;33068;51.990;5.926;2023-04-08T05:58:35;2.80;99.90
47336;DHT22;33068;51.990;5.926;2023-04-08T06:01:04;2.90;99.90
47336;DHT22;33068;51.990;5.926;2023-04-08T06:03:32;3.10;99.90
47336;DHT22;33068;51.990;5.926;2023-04-08T06:05:59;3.00;99.90
47336;DHT22;33068;51.990;5.926;2023-04-08T06:08:26;3.40;99.90
47336;DHT22;33068;51.990;5.926;2023-04-08T06:10:53;3.30;99.90
47336;DHT22;33068;51.990;5.926;2023-04-08T06:13:23;3.40;99.90
47336;DHT22;33068;51.990;5.926;2023-04-08T06:15:50;3.40;99.90
47336;DHT22;33068;51.990;5.926;2023-04-08T06:18:21;3.50;99.90
47336;DHT22;33068;51.990;5.926;2023-04-08T06:20:48;3.70;99.90
47336;DHT22;33068;51.990;5.926;2023-04-08T06:23:15;3.80;99.90
47336;DHT22;33068;51.990;5.926;2023-04-08T06:25:45;3.90;99.90
47336;DHT22;33068;51.990;5.926;2023-04-08T06:28:12;3.90;99.90
47336;DHT22;33068;51.990;5.926;2023-04-08T06:30:39;3.90;99.90
47336;DHT22;33068;51.990;5.926;2023-04-08T06:33:06;4.00;99.90
47336;DHT22;33068;51.990;5.926;2023-04-08T06:35:35;4.10;99.90
47336;DHT22;33068;51.990;5.926;2023-04-08T06:38:03;4.10;99.90
47336;DHT22;33068;51.990;5.926;2023-04-08T06:40:30;4.20;99.90
47336;DHT22;33068;51.990;5.926;2023-04-08T06:42:57;4.50;99.90
47336;DHT22;33068;51.990;5.926;2023-04-08T06:45:33;4.40;99.90
47336;DHT22;33068;51.990;5.926;2023-04-08T06:48:01;4.40;99.90
47336;DHT22;33068;51.990;5.926;2023-04-08T06:50:28;4.70;99.90
47336;DHT22;33068;51.990;5.926;2023-04-08T06:52:56;4.50;99.90
47336;DHT22;33068;51.990;5.926;2023-04-08T06:55:23;4.60;99.90
47336;DHT22;33068;51.990;5.926;2023-04-08T06:57:51;4.50;99.90
47336;DHT22;33068;51.990;5.926;2023-04-08T07:00:18;4.60;99.90
47336;DHT22;33068;51.990;5.926;2023-04-08T07:02:45;4.60;99.90
47336;DHT22;33068;51.990;5.926;2023-04-08T07:05:12;4.80;99.90
47336;DHT22;33068;51.990;5.926;2023-04-08T07:07:40;4.70;99.90
47336;DHT22;33068;51.990;5.926;2023-04-08T07:10:09;4.80;99.90
47336;DHT22;33068;51.990;5.926;2023-04-08T07:12:38;4.80;99.90
47336;DHT22;33068;51.990;5.926;2023-04-08T07:15:06;4.90;99.90
47336;DHT22;33068;51.990;5.926;2023-04-08T07:17:33;4.90;99.90
47336;DHT22;33068;51.990;5.926;2023-04-08T07:20:01;5.00;99.90
47336;DHT22;33068;51.990;5.926;2023-04-08T07:22:28;5.10;99.90
47336;DHT22;33068;51.990;5.926;2023-04-08T07:24:55;5.10;99.90
47336;DHT22;33068;51.990;5.926;2023-04-08T07:27:24;5.10;99.90
47336;DHT22;33068;51.990;5.926;2023-04-08T07:29:53;5.20;99.90
47336;DHT22;33068;51.990;5.926;2023-04-08T07:32:20;5.30;99.90
47336;DHT22;33068;51.990;5.926;2023-04-08T07:34:48;5.30;99.90
47336;DHT22;33068;51.990;5.926;2023-04-08T07:37:15;5.40;99.90
47336;DHT22;33068;51.990;5.926;2023-04-08T07:39:42;5.60;99.90
47336;DHT22;33068;51.990;5.926;2023-04-08T07:42:09;5.60;99.90
47336;DHT22;33068;51.990;5.926;2023-04-08T07:44:38;6.10;99.90
47336;DHT22;33068;51.990;5.926;2023-04-08T07:47:05;5.80;99.90
47336;DHT22;33068;51.990;5.926;2023-04-08T07:49:32;5.80;99.90
47336;DHT22;33068;51.990;5.926;2023-04-08T07:51:59;5.90;99.90
47336;DHT22;33068;51.990;5.926;2023-04-08T07:54:26;5.90;99.90
47336;DHT22;33068;51.990;5.926;2023-04-08T07:56:53;5.90;99.90
47336;DHT22;33068;51.990;5.926;2023-04-08T07:59:21;6.10;99.90
47336;DHT22;33068;51.990;5.926;2023-04-08T08:01:50;6.10;99.90
47336;DHT22;33068;51.990;5.926;2023-04-08T08:04:17;6.20;99.90
47336;DHT22;33068;51.990;5.926;2023-04-08T08:06:45;6.30;99.90
47336;DHT22;33068;51.990;5.926;2023-04-08T08:09:13;6.30;99.90
47336;DHT22;33068;51.990;5.926;2023-04-08T08:11:40;6.60;99.90
47336;DHT22;33068;51.990;5.926;2023-04-08T08:14:07;6.50;99.90
47336;DHT22;33068;51.990;5.926;2023-04-08T08:16:36;6.50;99.90
47336;DHT22;33068;51.990;5.926;2023-04-08T08:19:08;6.70;99.90
47336;DHT22;33068;51.990;5.926;2023-04-08T08:21:35;6.80;99.90
47336;DHT22;33068;51.990;5.926;2023-04-08T08:24:04;6.90;99.90
47336;DHT22;33068;51.990;5.926;2023-04-08T08:26:33;7.10;99.90
47336;DHT22;33068;51.990;5.926;2023-04-08T08:29:00;7.10;99.90
47336;DHT22;33068;51.990;5.926;2023-04-08T08:31:29;7.30;99.90
47336;DHT22;33068;51.990;5.926;2023-04-08T08:33:56;7.40;99.90
47336;DHT22;33068;51.990;5.926;2023-04-08T08:36:25;7.60;99.90
47336;DHT22;33068;51.990;5.926;2023-04-08T08:38:53;7.80;99.90
47336;DHT22;33068;51.990;5.926;2023-04-08T08:41:20;8.80;99.90
47336;DHT22;33068;51.990;5.926;2023-04-08T08:43:47;9.40;99.90
47336;DHT22;33068;51.990;5.926;2023-04-08T08:46:16;10.20;99.90
47336;DHT22;33068;51.990;5.926;2023-04-08T08:48:43;10.90;99.90
47336;DHT22;33068;51.990;5.926;2023-04-08T08:51:12;11.00;99.90
47336;DHT22;33068;51.990;5.926;2023-04-08T08:53:40;11.00;99.90
47336;DHT22;33068;51.990;5.926;2023-04-08T08:56:10;11.20;99.90
47336;DHT22;33068;51.990;5.926;2023-04-08T08:58:37;11.50;99.90
47336;DHT22;33068;51.990;5.926;2023-04-08T09:01:29;11.80;99.90
47336;DHT22;33068;51.990;5.926;2023-04-08T09:04:12;11.70;99.90
47336;DHT22;33068;51.990;5.926;2023-04-08T09:06:42;12.00;99.90
47336;DHT22;33068;51.990;5.926;2023-04-08T09:09:10;12.00;99.90
47336;DHT22;33068;51.990;5.926;2023-04-08T09:11:38;12.00;99.90
47336;DHT22;33068;51.990;5.926;2023-04-08T09:14:17;12.20;99.90
47336;DHT22;33068;51.990;5.926;2023-04-08T09:16:44;12.20;99.90
47336;DHT22;33068;51.990;5.926;2023-04-08T09:19:12;12.00;99.90
47336;DHT22;33068;51.990;5.926;2023-04-08T09:21:39;12.10;99.90
47336;DHT22;33068;51.990;5.926;2023-04-08T09:24:07;12.00;99.90
47336;DHT22;33068;51.990;5.926;2023-04-08T09:26:36;12.00;99.90
47336;DHT22;33068;51.990;5.926;2023-04-08T09:29:05;12.20;99.90
47336;DHT22;33068;51.990;5.926;2023-04-08T09:31:33;12.40;99.90
47336;DHT22;33068;51.990;5.926;2023-04-08T09:34:09;12.50;99.90
47336;DHT22;33068;51.990;5.926;2023-04-08T09:36:36;12.70;99.90
47336;DHT22;33068;51.990;5.926;2023-04-08T09:39:04;12.50;99.90
47336;DHT22;33068;51.990;5.926;2023-04-08T09:41:33;12.60;99.90
47336;DHT22;33068;51.990;5.926;2023-04-08T09:44:03;12.80;99.90
47336;DHT22;33068;51.990;5.926;2023-04-08T09:46:35;13.20;99.90
47336;DHT22;33068;51.990;5.926;2023-04-08T09:49:06;13.40;99.90
47336;DHT22;33068;51.990;5.926;2023-04-08T09:51:40;13.40;99.90
47336;DHT22;33068;51.990;5.926;2023-04-08T09:54:13;13.60;99.90
47336;DHT22;33068;51.990;5.926;2023-04-08T09:56:43;13.80;99.90
47336;DHT22;33068;51.990;5.926;2023-04-08T09:59:17;14.00;99.90
47336;DHT22;33068;51.990;5.926;2023-04-08T10:01:51;14.20;99.90
47336;DHT22;33068;51.990;5.926;2023-04-08T10:04:22;14.20;99.90
47336;DHT22;33068;51.990;5.926;2023-04-08T10:06:53;14.30;99.90
47336;DHT22;33068;51.990;5.926;2023-04-08T10:09:23;14.40;99.90
47336;DHT22;33068;51.990;5.926;2023-04-08T10:11:50;14.40;99.90
47336;DHT22;33068;51.990;5.926;2023-04-08T10:14:19;14.40;99.90
47336;DHT22;33068;51.990;5.926;2023-04-08T10:16:47;14.50;99.90
47336;DHT22;33068;51.990;5.926;2023-04-08T10:19:36;14.40;99.90
47336;DHT22;33068;51.990;5.926;2023-04-08T10:22:45;14.50;99.90
47336;DHT22;33068;51.990;5.926;2023-04-08T10:25:29;14.10;99.90
47336;DHT22;33068;51.990;5.926;2023-04-08T10:27:57;14.30;99.90
47336;DHT22;33068;51.990;5.926;2023-04-08T10:30:45;14.50;99.90
47336;DHT22;33068;51.990;5.926;2023-04-08T10:33:13;14.60;99.90
47336;DHT22;33068;51.990;5.926;2023-04-08T10:35:42;14.10;99.00
47336;DHT22;33068;51.990;5.926;2023-04-08T10:38:11;13.80;99.90
47336;DHT22;33068;51.990;5.926;2023-04-08T10:40:39;13.60;99.90
47336;DHT22;33068;51.990;5.926;2023-04-08T10:43:08;13.70;99.90
47336;DHT22;33068;51.990;5.926;2023-04-08T10:45:36;13.60;99.90
47336;DHT22;33068;51.990;5.926;2023-04-08T10:48:15;13.60;99.90
47336;DHT22;33068;51.990;5.926;2023-04-08T10:50:43;13.80;97.70
47336;DHT22;33068;51.990;5.926;2023-04-08T10:53:11;13.90;98.70
47336;DHT22;33068;51.990;5.926;2023-04-08T10:55:38;14.00;97.60
47336;DHT22;33068;51.990;5.926;2023-04-08T10:58:06;13.80;95.80
47336;DHT22;33068;51.990;5.926;2023-04-08T11:00:35;13.70;96.20
47336;DHT22;33068;51.990;5.926;2023-04-08T11:03:04;13.70;98.50
47336;DHT22;33068;51.990;5.926;2023-04-08T11:05:34;13.80;96.40
47336;DHT22;33068;51.990;5.926;2023-04-08T11:08:02;13.90;96.50
47336;DHT22;33068;51.990;5.926;2023-04-08T11:10:30;13.90;97.00
47336;DHT22;33068;51.990;5.926;2023-04-08T11:13:01;14.00;95.70
47336;DHT22;33068;51.990;5.926;2023-04-08T11:15:29;14.20;96.30
47336;DHT22;33068;51.990;5.926;2023-04-08T11:17:57;14.50;94.20
47336;DHT22;33068;51.990;5.926;2023-04-08T11:20:24;14.70;92.10
47336;DHT22;33068;51.990;5.926;2023-04-08T11:22:54;14.70;94.30
47336;DHT22;33068;51.990;5.926;2023-04-08T11:25:21;14.70;94.90
47336;DHT22;33068;51.990;5.926;2023-04-08T11:27:48;14.80;94.10
47336;DHT22;33068;51.990;5.926;2023-04-08T11:30:23;14.70;94.60
47336;DHT22;33068;51.990;5.926;2023-04-08T11:32:50;14.70;90.50
47336;DHT22;33068;51.990;5.926;2023-04-08T11:35:19;14.70;93.70
47336;DHT22;33068;51.990;5.926;2023-04-08T11:37:46;14.70;92.80
47336;DHT22;33068;51.990;5.926;2023-04-08T11:40:20;14.80;94.00
47336;DHT22;33068;51.990;5.926;2023-04-08T11:42:48;14.70;93.10
47336;DHT22;33068;51.990;5.926;2023-04-08T11:45:18;14.50;94.60
47336;DHT22;33068;51.990;5.926;2023-04-08T11:47:46;14.40;94.40
47336;DHT22;33068;51.990;5.926;2023-04-08T11:50:22;14.40;94.00
47336;DHT22;33068;51.990;5.926;2023-04-08T11:52:50;14.40;92.60
47336;DHT22;33068;51.990;5.926;2023-04-08T11:55:26;14.30;91.90
47336;DHT22;33068;51.990;5.926;2023-04-08T11:57:54;14.30;92.00
47336;DHT22;33068;51.990;5.926;2023-04-08T12:00:24;14.20;91.90
47336;DHT22;33068;51.990;5.926;2023-04-08T12:02:54;14.20;92.20
47336;DHT22;33068;51.990;5.926;2023-04-08T12:05:21;14.30;91.90
47336;DHT22;33068;51.990;5.926;2023-04-08T12:07:48;14.30;92.10
47336;DHT22;33068;51.990;5.926;2023-04-08T12:10:15;14.30;94.10
47336;DHT22;33068;51.990;5.926;2023-04-08T12:12:44;14.00;97.10
47336;DHT22;33068;51.990;5.926;2023-04-08T12:15:12;13.90;98.90
47336;DHT22;33068;51.990;5.926;2023-04-08T12:17:39;13.90;98.60
47336;DHT22;33068;51.990;5.926;2023-04-08T12:20:06;14.00;96.40
47336;DHT22;33068;51.990;5.926;2023-04-08T12:22:34;14.20;96.40
47336;DHT22;33068;51.990;5.926;2023-04-08T12:25:08;14.30;97.30
47336;DHT22;33068;51.990;5.926;2023-04-08T12:27:46;14.50;97.10
47336;DHT22;33068;51.990;5.926;2023-04-08T12:30:14;14.90;97.10
47336;DHT22;33068;51.990;5.926;2023-04-08T12:32:41;15.30;96.10
47336;DHT22;33068;51.990;5.926;2023-04-08T12:35:10;15.90;93.90
47336;DHT22;33068;51.990;5.926;2023-04-08T12:37:41;15.90;93.30
47336;DHT22;33068;51.990;5.926;2023-04-08T12:40:11;15.90;93.20
47336;DHT22;33068;51.990;5.926;2023-04-08T12:42:40;15.60;93.60
47336;DHT22;33068;51.990;5.926;2023-04-08T12:45:09;15.50;92.60
47336;DHT22;33068;51.990;5.926;2023-04-08T12:47:42;15.50;92.20
47336;DHT22;33068;51.990;5.926;2023-04-08T12:50:09;15.30;93.40
47336;DHT22;33068;51.990;5.926;2023-04-08T12:52:37;15.20;91.80
47336;DHT22;33068;51.990;5.926;2023-04-08T12:55:05;15.10;93.30
47336;DHT22;33068;51.990;5.926;2023-04-08T12:57:32;15.00;93.90
47336;DHT22;33068;51.990;5.926;2023-04-08T13:00:00;15.10;94.50
47336;DHT22;33068;51.990;5.926;2023-04-08T13:02:28;15.10;93.20
47336;DHT22;33068;51.990;5.926;2023-04-08T13:04:55;15.10;93.80
47336;DHT22;33068;51.990;5.926;2023-04-08T13:07:23;15.30;93.50
47336;DHT22;33068;51.990;5.926;2023-04-08T13:09:50;15.10;94.80
47336;DHT22;33068;51.990;5.926;2023-04-08T13:12:17;15.20;93.30
47336;DHT22;33068;51.990;5.926;2023-04-08T13:14:44;15.20;94.20
47336;DHT22;33068;51.990;5.926;2023-04-08T13:17:11;15.10;94.10
47336;DHT22;33068;51.990;5.926;2023-04-08T13:19:40;14.80;95.40
47336;DHT22;33068;51.990;5.926;2023-04-08T13:22:07;14.60;95.70
47336;DHT22;33068;51.990;5.926;2023-04-08T13:24:34;14.40;97.00
47336;DHT22;33068;51.990;5.926;2023-04-08T13:27:01;14.40;95.90
47336;DHT22;33068;51.990;5.926;2023-04-08T13:29:28;14.30;95.10
47336;DHT22;33068;51.990;5.926;2023-04-08T13:31:55;14.40;95.10
47336;DHT22;33068;51.990;5.926;2023-04-08T13:34:22;14.50;95.10
47336;DHT22;33068;51.990;5.926;2023-04-08T13:36:51;14.50;92.30
47336;DHT22;33068;51.990;5.926;2023-04-08T13:39:18;14.60;92.90
47336;DHT22;33068;51.990;5.926;2023-04-08T13:41:45;14.90;91.50
47336;DHT22;33068;51.990;5.926;2023-04-08T13:44:12;15.10;92.40
47336;DHT22;33068;51.990;5.926;2023-04-08T13:46:40;14.80;93.40
47336;DHT22;33068;51.990;5.926;2023-04-08T13:49:07;14.80;94.00
47336;DHT22;33068;51.990;5.926;2023-04-08T13:51:34;14.50;94.60
47336;DHT22;33068;51.990;5.926;2023-04-08T13:54:02;14.50;94.20
47336;DHT22;33068;51.990;5.926;2023-04-08T13:56:29;14.50;95.60
47336;DHT22;33068;51.990;5.926;2023-04-08T13:58:56;14.30;95.60
47336;DHT22;33068;51.990;5.926;2023-04-08T14:01:24;14.10;96.90
47336;DHT22;33068;51.990;5.926;2023-04-08T14:03:51;14.10;98.40
47336;DHT22;33068;51.990;5.926;2023-04-08T14:06:18;14.20;98.60
47336;DHT22;33068;51.990;5.926;2023-04-08T14:08:45;14.30;95.90
47336;DHT22;33068;51.990;5.926;2023-04-08T14:11:13;14.40;96.00
47336;DHT22;33068;51.990;5.926;2023-04-08T14:13:40;14.40;95.40
47336;DHT22;33068;51.990;5.926;2023-04-08T14:16:07;14.40;96.50
47336;DHT22;33068;51.990;5.926;2023-04-08T14:18:34;14.30;96.20
47336;DHT22;33068;51.990;5.926;2023-04-08T14:21:02;14.20;97.50
47336;DHT22;33068;51.990;5.926;2023-04-08T14:23:30;14.10;97.30
47336;DHT22;33068;51.990;5.926;2023-04-08T14:25:57;14.10;98.10
47336;DHT22;33068;51.990;5.926;2023-04-08T14:28:27;14.30;99.00
47336;DHT22;33068;51.990;5.926;2023-04-08T14:30:54;14.60;97.00
47336;DHT22;33068;51.990;5.926;2023-04-08T14:33:21;15.20;95.90
47336;DHT22;33068;51.990;5.926;2023-04-08T14:35:48;15.70;94.80
47336;DHT22;33068;51.990;5.926;2023-04-08T14:38:15;16.00;95.80
47336;DHT22;33068;51.990;5.926;2023-04-08T14:40:42;16.10;94.30
47336;DHT22;33068;51.990;5.926;2023-04-08T14:43:09;16.40;94.40
47336;DHT22;33068;51.990;5.926;2023-04-08T14:45:38;16.30;94.00
47336;DHT22;33068;51.990;5.926;2023-04-08T14:48:05;16.00;96.70
47336;DHT22;33068;51.990;5.926;2023-04-08T14:50:33;16.40;94.50
47336;DHT22;33068;51.990;5.926;2023-04-08T14:53:00;16.70;95.00
47336;DHT22;33068;51.990;5.926;2023-04-08T14:55:27;17.10;94.40
47336;DHT22;33068;51.990;5.926;2023-04-08T14:57:54;17.00;94.40
47336;DHT22;33068;51.990;5.926;2023-04-08T15:00:22;16.80;96.00
47336;DHT22;33068;51.990;5.926;2023-04-08T15:02:50;16.70;96.20
47336;DHT22;33068;51.990;5.926;2023-04-08T15:05:17;16.70;96.90
47336;DHT22;33068;51.990;5.926;2023-04-08T15:07:46;16.90;96.00
47336;DHT22;33068;51.990;5.926;2023-04-08T15:10:13;16.50;96.50
47336;DHT22;33068;51.990;5.926;2023-04-08T15:12:40;16.40;97.30
47336;DHT22;33068;51.990;5.926;2023-04-08T15:15:08;16.70;96.90
47336;DHT22;33068;51.990;5.926;2023-04-08T15:17:35;17.20;96.80
47336;DHT22;33068;51.990;5.926;2023-04-08T15:20:05;17.40;95.60
47336;DHT22;33068;51.990;5.926;2023-04-08T15:22:32;17.30;95.20
47336;DHT22;33068;51.990;5.926;2023-04-08T15:24:59;16.80;96.90
47336;DHT22;33068;51.990;5.926;2023-04-08T15:27:29;16.40;97.30
47336;DHT22;33068;51.990;5.926;2023-04-08T15:29:57;16.40;97.30
47336;DHT22;33068;51.990;5.926;2023-04-08T15:32:24;16.40;98.70
47336;DHT22;33068;51.990;5.926;2023-04-08T15:34:51;16.20;98.50
47336;DHT22;33068;51.990;5.926;2023-04-08T15:37:23;16.10;99.10
47336;DHT22;33068;51.990;5.926;2023-04-08T15:39:50;15.90;99.90
47336;DHT22;33068;51.990;5.926;2023-04-08T15:42:42;15.70;99.90
47336;DHT22;33068;51.990;5.926;2023-04-08T15:45:46;15.60;99.90
47336;DHT22;33068;51.990;5.926;2023-04-08T15:49:05;15.60;99.90
47336;DHT22;33068;51.990;5.926;2023-04-08T15:51:34;15.80;99.90